Time;durP1;ratioP1;P1;durP2;ratioP2;P2;SDS_P1;SDS_P2;PMS_P1;PMS_P2;Temp;Humidity;BMP_temperature;BMP_pressure;BME280_temperature;BME280_humidity;BME280_pressure;Samples;Min_cycle;Max_cycle;Signal;HPM_P1;HPM_P2
2022/04/02 00:00:50;;;;;;;0.93;0.93;;;4.10;99.90;;;;;;5078659;28;20270;-82
2022/04/02 00:03:16;;;;;;;0.70;0.70;;;4.10;99.90;;;;;;5043922;28;20189;-84
2022/04/02 00:05:42;;;;;;;0.40;0.40;;;4.10;99.90;;;;;;5062579;28;20236;-82
2022/04/02 00:08:07;;;;;;;0.47;0.47;;;4.10;99.90;;;;;;5044047;28;20625;-83
2022/04/02 00:10:33;;;;;;;6.20;0.90;;;4.10;99.90;;;;;;5061445;28;20225;-82
2022/04/02 00:12:59;;;;;;;0.30;0.30;;;4.10;99.90;;;;;;5044358;28;20255;-84
2022/04/02 00:15:24;;;;;;;0.30;0.30;;;4.10;99.90;;;;;;5044535;28;20618;-84
2022/04/02 00:17:50;;;;;;;0.50;0.50;;;4.20;99.90;;;;;;5045043;28;20220;-82
2022/04/02 00:20:17;;;;;;;0.47;0.47;;;4.20;99.90;;;;;;5044276;28;20274;-83
2022/04/02 00:23:35;;;;;;;0.50;0.50;;;4.20;99.90;;;;;;5051972;28;20302;-83
2022/04/02 00:25:30;;;;;;;0.80;0.80;;;4.20;99.90;;;;;;5062504;28;20236;-83
2022/04/02 00:27:56;;;;;;;0.40;0.40;;;4.20;99.90;;;;;;5060515;28;20224;-84
2022/04/02 00:30:21;;;;;;;0.30;0.30;;;4.20;99.90;;;;;;5062027;28;20252;-83
2022/04/02 00:32:47;;;;;;;0.67;0.67;;;4.10;99.90;;;;;;5061247;28;20208;-84
2022/04/02 00:35:14;;;;;;;17.70;0.80;;;4.10;99.90;;;;;;5043732;28;20221;-84
2022/04/02 00:37:40;;;;;;;0.83;0.83;;;4.10;99.90;;;;;;5062445;28;20237;-84
2022/04/02 00:40:07;;;;;;;0.57;0.57;;;4.10;99.90;;;;;;5061524;28;20236;-84
2022/04/02 00:42:32;;;;;;;2.93;1.27;;;4.10;99.90;;;;;;5043903;28;20216;-84
2022/04/02 00:44:58;;;;;;;0.33;0.33;;;4.20;99.90;;;;;;5061959;28;20631;-82
2022/04/02 00:47:24;;;;;;;0.30;0.30;;;4.20;99.90;;;;;;5060708;28;20221;-83
2022/04/02 00:49:53;;;;;;;0.50;0.50;;;4.10;99.90;;;;;;5059977;28;20233;-83
2022/04/02 00:52:20;;;;;;;0.40;0.40;;;4.10;99.90;;;;;;5061918;28;20233;-82
2022/04/02 00:54:49;;;;;;;0.30;0.30;;;4.00;99.90;;;;;;5043557;28;20217;-82
2022/04/02 00:57:15;;;;;;;0.60;0.60;;;4.00;99.90;;;;;;5043685;28;20189;-84
2022/04/02 00:59:41;;;;;;;0.67;0.67;;;3.90;99.90;;;;;;5060654;28;20606;-83
2022/04/02 01:02:07;;;;;;;0.70;0.70;;;3.80;99.90;;;;;;5060358;28;20229;-82
2022/04/02 01:04:33;;;;;;;0.83;0.63;;;3.80;99.90;;;;;;5060452;28;20224;-84
2022/04/02 01:06:59;;;;;;;0.57;0.50;;;3.80;99.90;;;;;;5043158;28;20217;-84
2022/04/02 01:09:25;;;;;;;0.40;0.40;;;3.70;99.90;;;;;;5060079;28;20189;-83
2022/04/02 01:11:54;;;;;;;0.40;0.40;;;3.70;99.90;;;;;;5060371;28;20193;-84
2022/04/02 01:14:20;;;;;;;0.70;0.70;;;3.60;99.90;;;;;;5042524;28;20266;-83
2022/04/02 01:16:45;;;;;;;0.23;0.23;;;3.70;99.90;;;;;;5061474;28;20359;-82
2022/04/02 01:19:11;;;;;;;0.30;0.30;;;3.80;99.90;;;;;;5042554;28;20205;-83
2022/04/02 01:21:37;;;;;;;1.07;0.97;;;3.70;99.90;;;;;;5049054;28;20248;-82
2022/04/02 01:24:04;;;;;;;0.30;0.30;;;3.60;99.90;;;;;;5060287;28;20228;-82
2022/04/02 01:26:30;;;;;;;1.07;0.97;;;3.50;99.90;;;;;;5076798;28;20244;-83
2022/04/02 01:28:57;;;;;;;0.47;0.47;;;3.50;99.90;;;;;;5060946;28;20214;-82
2022/04/02 01:31:24;;;;;;;1.53;0.63;;;3.40;99.90;;;;;;5061127;28;20221;-82
2022/04/02 01:33:51;;;;;;;0.60;0.60;;;3.40;99.90;;;;;;5061187;28;20219;-84
2022/04/02 01:36:17;;;;;;;0.30;0.30;;;3.30;99.90;;;;;;5060372;28;20203;-84
2022/04/02 01:38:44;;;;;;;0.53;0.53;;;3.20;99.90;;;;;;5077418;28;20288;-83
2022/04/02 01:41:10;;;;;;;3.13;1.47;;;3.00;99.90;;;;;;5059054;28;20237;-84
2022/04/02 01:43:36;;;;;;;0.30;0.30;;;3.00;99.90;;;;;;5060707;28;20232;-83
2022/04/02 01:46:03;;;;;;;0.33;0.33;;;2.90;99.90;;;;;;5060659;28;20223;-83
2022/04/02 01:48:30;;;;;;;0.30;0.30;;;2.90;99.90;;;;;;5042675;28;20201;-84
2022/04/02 01:50:56;;;;;;;0.37;0.37;;;2.90;99.90;;;;;;5059718;28;20634;-82
2022/04/02 01:53:24;;;;;;;0.37;0.37;;;2.80;99.90;;;;;;5043130;28;20909;-83
2022/04/02 01:55:50;;;;;;;0.40;0.40;;;2.80;99.90;;;;;;5042727;28;20225;-84
2022/04/02 01:58:17;;;;;;;0.67;0.67;;;2.90;99.90;;;;;;5042491;28;20217;-84
2022/04/02 02:00:44;;;;;;;0.53;0.53;;;2.90;99.90;;;;;;5059342;28;20225;-83
2022/04/02 02:03:12;;;;;;;0.33;0.33;;;2.80;99.90;;;;;;5061089;28;20201;-83
2022/04/02 02:05:37;;;;;;;0.57;0.57;;;2.90;99.90;;;;;;5059182;28;20270;-84
2022/04/02 02:08:04;;;;;;;0.77;0.77;;;2.90;99.90;;;;;;5075600;28;21023;-82
2022/04/02 02:10:29;;;;;;;0.30;0.30;;;2.80;99.90;;;;;;5060484;28;20290;-83
2022/04/02 02:12:55;;;;;;;0.57;0.57;;;2.80;99.90;;;;;;5059310;28;20221;-83
2022/04/02 02:15:22;;;;;;;0.47;0.47;;;2.70;99.90;;;;;;5058574;28;20216;-84
2022/04/02 02:17:49;;;;;;;0.87;0.87;;;2.70;99.90;;;;;;5061204;28;20594;-84
2022/04/02 02:20:16;;;;;;;0.57;0.57;;;2.70;99.90;;;;;;5059587;28;20253;-83
2022/04/02 02:22:44;;;;;;;0.60;0.60;;;2.80;99.90;;;;;;5075882;28;20217;-82
2022/04/02 02:25:12;;;;;;;0.40;0.40;;;2.80;99.90;;;;;;5058006;28;20235;-83
2022/04/02 02:27:40;;;;;;;0.30;0.30;;;3.00;99.90;;;;;;5042200;28;20262;-82
2022/04/02 02:30:08;;;;;;;0.70;0.70;;;3.00;99.90;;;;;;5058995;28;20284;-84
2022/04/02 02:32:36;;;;;;;0.40;0.40;;;3.10;99.90;;;;;;5042584;28;20224;-83
2022/04/02 02:38:08;;;;;;;0.30;0.30;;;3.00;99.90;;;;;;5060408;28;20711;-84
2022/04/02 02:40:35;;;;;;;0.40;0.40;;;3.10;99.90;;;;;;5075048;28;20237;-83
2022/04/02 02:43:01;;;;;;;0.97;0.97;;;3.00;99.90;;;;;;5059337;28;20573;-83
2022/04/02 02:45:27;;;;;;;0.40;0.40;;;3.00;99.90;;;;;;5075545;28;20205;-82
2022/04/02 02:47:54;;;;;;;4.33;0.60;;;2.90;99.90;;;;;;5059909;28;20634;-83
2022/04/02 02:50:21;;;;;;;2.73;1.43;;;2.80;99.90;;;;;;5075189;28;20229;-83
2022/04/02 02:52:47;;;;;;;0.40;0.40;;;2.60;99.90;;;;;;5058831;28;20332;-83
2022/04/02 02:55:13;;;;;;;0.53;0.53;;;2.60;99.90;;;;;;5041962;28;20228;-84
2022/04/02 02:57:43;;;;;;;0.40;0.40;;;2.40;99.90;;;;;;5058644;28;20248;-84
2022/04/02 03:00:10;;;;;;;0.53;0.53;;;2.40;99.90;;;;;;5060256;28;20232;-84
2022/04/02 03:02:37;;;;;;;0.33;0.33;;;2.50;99.90;;;;;;5033891;28;20232;-82
2022/04/02 03:05:10;;;;;;;0.50;0.50;;;2.40;99.90;;;;;;5041645;28;20210;-84
2022/04/02 03:07:48;;;;;;;0.50;0.50;;;2.40;99.90;;;;;;5059936;28;20453;-84
2022/04/02 03:10:17;;;;;;;2.40;0.57;;;2.40;99.90;;;;;;5042444;28;20216;-84
2022/04/02 03:12:44;;;;;;;1.00;0.90;;;2.40;99.90;;;;;;5057913;28;20275;-82
2022/04/02 03:15:11;;;;;;;0.67;0.67;;;2.30;99.90;;;;;;5061084;28;20190;-84
2022/04/02 03:17:37;;;;;;;0.47;0.47;;;2.30;99.90;;;;;;5041386;28;20217;-83
2022/04/02 03:20:04;;;;;;;0.60;0.60;;;2.30;99.90;;;;;;5059822;28;21065;-83
2022/04/02 03:22:30;;;;;;;0.57;0.57;;;2.20;99.90;;;;;;5075414;28;20700;-84
2022/04/02 03:24:56;;;;;;;0.63;0.63;;;2.20;99.90;;;;;;5042096;28;20259;-84
2022/04/02 03:27:22;;;;;;;0.30;0.30;;;2.20;99.90;;;;;;5041468;28;20193;-82
2022/04/02 03:29:48;;;;;;;0.43;0.43;;;2.10;99.90;;;;;;5059569;28;20879;-84
2022/04/02 03:32:14;;;;;;;3.60;0.80;;;2.10;99.90;;;;;;5074435;28;20228;-84
2022/04/02 03:34:40;;;;;;;0.40;0.40;;;2.00;99.90;;;;;;5058705;28;20585;-83
2022/04/02 03:37:05;;;;;;;0.57;0.57;;;1.90;99.90;;;;;;5041483;28;20249;-83
2022/04/02 03:39:31;;;;;;;0.40;0.40;;;1.90;99.90;;;;;;5061953;28;20228;-82
2022/04/02 03:41:57;;;;;;;0.70;0.70;;;2.00;99.90;;;;;;5079239;28;20196;-84
2022/04/02 03:44:22;;;;;;;0.40;0.40;;;2.10;99.90;;;;;;5063292;28;21051;-84
2022/04/02 03:49:33;;;;;;;1.40;1.40;;;2.20;99.90;;;;;;5063258;28;20221;-84
2022/04/02 03:51:58;;;;;;;1.17;0.63;;;2.40;99.90;;;;;;5078743;28;21045;-82
2022/04/02 03:54:24;;;;;;;1.23;0.60;;;2.40;99.90;;;;;;5044992;28;20197;-84
2022/04/02 03:56:50;;;;;;;0.70;0.70;;;2.40;99.90;;;;;;5045139;28;20194;-82
2022/04/02 03:59:16;;;;;;;0.60;0.60;;;2.50;99.90;;;;;;5044104;28;20290;-84
2022/04/02 04:01:42;;;;;;;0.43;0.43;;;2.50;99.90;;;;;;5078178;28;20237;-83
2022/04/02 04:04:08;;;;;;;0.63;0.60;;;2.50;99.90;;;;;;5043612;28;20954;-83
2022/04/02 04:06:34;;;;;;;0.33;0.33;;;2.50;99.90;;;;;;5061678;28;20307;-84
2022/04/02 04:09:00;;;;;;;16.03;0.73;;;2.50;99.90;;;;;;5044525;28;20232;-84
2022/04/02 04:11:26;;;;;;;0.80;0.80;;;2.60;99.90;;;;;;5062585;28;20308;-83
2022/04/02 04:13:53;;;;;;;0.50;0.50;;;2.50;99.90;;;;;;5062691;28;21083;-82
2022/04/02 04:16:20;;;;;;;0.40;0.40;;;2.50;99.90;;;;;;5044207;28;20600;-84
2022/04/02 04:18:45;;;;;;;0.40;0.40;;;2.50;99.90;;;;;;5077908;28;20240;-84
2022/04/02 04:21:14;;;;;;;0.47;0.47;;;2.50;99.90;;;;;;5061262;28;20433;-82
2022/04/02 04:23:42;;;;;;;0.30;0.30;;;2.40;99.90;;;;;;5044440;28;20239;-84
2022/04/02 04:26:08;;;;;;;0.40;0.40;;;2.30;99.90;;;;;;5043749;28;20225;-83
2022/04/02 04:28:35;;;;;;;0.50;0.50;;;2.20;99.90;;;;;;5043863;28;20304;-83
2022/04/02 04:31:01;;;;;;;0.40;0.40;;;2.20;99.90;;;;;;5062494;28;20255;-83
2022/04/02 04:33:28;;;;;;;0.40;0.40;;;2.20;99.90;;;;;;5043225;28;20189;-82
2022/04/02 04:35:53;;;;;;;0.30;0.30;;;2.20;99.90;;;;;;5062088;28;20185;-83
2022/04/02 04:38:19;;;;;;;0.50;0.50;;;2.20;99.90;;;;;;5043629;28;20602;-84
2022/04/02 04:40:45;;;;;;;0.40;0.40;;;2.20;99.90;;;;;;5061137;28;21166;-84
2022/04/02 04:43:10;;;;;;;0.53;0.53;;;2.20;99.90;;;;;;5043460;28;20255;-84
2022/04/02 04:45:36;;;;;;;0.50;0.50;;;2.20;99.90;;;;;;5077694;28;20221;-82
2022/04/02 04:48:02;;;;;;;0.50;0.50;;;2.20;99.90;;;;;;5061488;28;20201;-84
2022/04/02 04:50:28;;;;;;;0.80;0.80;;;2.20;99.90;;;;;;5076601;28;20286;-82
2022/04/02 04:52:54;;;;;;;0.67;0.67;;;2.20;99.90;;;;;;5061000;28;20686;-83
2022/04/02 04:55:20;;;;;;;0.30;0.30;;;2.20;99.90;;;;;;5059437;28;20228;-84
2022/04/02 04:57:48;;;;;;;0.40;0.40;;;2.20;99.90;;;;;;5077240;28;20221;-83
2022/04/02 05:00:15;;;;;;;0.50;0.50;;;2.10;99.90;;;;;;5043066;28;20241;-84
2022/04/02 05:02:44;;;;;;;0.50;0.50;;;2.20;99.90;;;;;;5061329;28;20201;-85
2022/04/02 05:05:12;;;;;;;0.50;0.50;;;2.20;99.90;;;;;;5061046;28;20270;-85
2022/04/02 05:07:41;;;;;;;0.30;0.30;;;2.20;99.90;;;;;;5061495;28;20218;-84
2022/04/02 05:10:08;;;;;;;0.57;0.57;;;2.20;99.90;;;;;;5059697;28;20225;-84
2022/04/02 05:12:36;;;;;;;0.70;0.70;;;2.10;99.90;;;;;;5077170;28;20217;-81
2022/04/02 05:15:02;;;;;;;1.30;1.23;;;2.00;99.90;;;;;;5077498;28;20189;-83
2022/04/02 05:17:28;;;;;;;0.77;0.73;;;2.00;99.90;;;;;;5060234;28;20225;-84
2022/04/02 05:19:54;;;;;;;0.77;0.77;;;2.00;99.90;;;;;;5060510;28;20263;-82
2022/04/02 05:22:20;;;;;;;0.50;0.50;;;2.10;99.90;;;;;;5043328;28;20233;-83
2022/04/02 05:24:46;;;;;;;1.23;1.13;;;2.10;99.90;;;;;;5059473;28;20239;-82
2022/04/02 05:27:11;;;;;;;2.80;0.50;;;2.20;99.90;;;;;;5076909;28;20189;-80
2022/04/02 05:29:37;;;;;;;0.60;0.60;;;2.20;99.90;;;;;;5043397;28;20194;-82
2022/04/02 05:32:03;;;;;;;1.30;0.83;;;2.30;99.90;;;;;;5076843;28;20229;-83
2022/04/02 05:34:30;;;;;;;0.60;0.60;;;2.50;99.90;;;;;;5042861;28;20437;-82
2022/04/02 05:36:56;;;;;;;0.50;0.50;;;2.90;99.90;;;;;;5059660;28;20213;-82
2022/04/02 05:39:22;;;;;;;0.30;0.30;;;3.10;99.90;;;;;;5059564;28;20193;-82
2022/04/02 05:41:48;;;;;;;0.67;0.67;;;3.20;99.90;;;;;;5061507;28;20323;-83
2022/04/02 05:44:14;;;;;;;0.57;0.57;;;3.10;99.90;;;;;;5059884;28;21029;-83
2022/04/02 05:46:41;;;;;;;3.70;0.80;;;3.00;99.90;;;;;;5059761;28;20217;-83
2022/04/02 05:49:06;;;;;;;0.40;0.40;;;2.90;99.90;;;;;;5059719;28;20572;-81
2022/04/02 05:51:32;;;;;;;0.70;0.70;;;3.00;99.90;;;;;;5042559;28;20708;-81
2022/04/02 05:53:59;;;;;;;0.50;0.50;;;3.10;99.90;;;;;;5077182;28;20646;-83
2022/04/02 05:56:26;;;;;;;2.10;1.33;;;3.30;99.90;;;;;;5058622;28;20708;-83
2022/04/02 05:58:53;;;;;;;0.27;0.27;;;3.30;99.90;;;;;;5075981;28;20240;-81
2022/04/02 06:01:19;;;;;;;0.70;0.70;;;3.30;99.90;;;;;;5060012;28;20556;-83
2022/04/02 06:03:46;;;;;;;0.93;0.83;;;3.30;99.90;;;;;;5059596;28;20755;-84
2022/04/02 06:06:12;;;;;;;0.73;0.73;;;3.60;99.90;;;;;;5060405;28;20586;-81
2022/04/02 06:08:38;;;;;;;3.93;2.43;;;3.60;99.90;;;;;;5061132;28;20216;-83
2022/04/02 06:11:07;;;;;;;0.47;0.47;;;3.60;99.90;;;;;;5075795;28;20379;-83
2022/04/02 06:13:33;;;;;;;1.23;0.77;;;3.60;99.90;;;;;;5075852;28;20271;-83
2022/04/02 06:15:59;;;;;;;0.57;0.57;;;3.60;99.90;;;;;;5060361;28;20583;-84
2022/04/02 06:18:25;;;;;;;0.30;0.30;;;3.60;99.90;;;;;;5042051;28;20189;-80
2022/04/02 06:20:50;;;;;;;1.13;0.70;;;3.60;99.90;;;;;;5075882;28;20220;-83
2022/04/02 06:23:18;;;;;;;0.40;0.40;;;3.60;99.90;;;;;;5058677;28;20232;-84
2022/04/02 06:25:44;;;;;;;0.83;0.77;;;3.60;99.90;;;;;;5041739;28;20221;-84
2022/04/02 06:28:10;;;;;;;0.43;0.40;;;3.70;99.90;;;;;;5075649;28;20229;-83
2022/04/02 06:30:36;;;;;;;0.87;0.73;;;3.80;99.90;;;;;;5042214;28;20214;-83
2022/04/02 06:33:02;;;;;;;1.07;1.07;;;3.80;99.90;;;;;;5061035;28;20319;-82
2022/04/02 06:35:28;;;;;;;0.93;0.93;;;4.00;99.90;;;;;;5041857;28;20394;-84
2022/04/02 06:37:55;;;;;;;0.40;0.40;;;4.20;99.90;;;;;;5058866;28;20228;-83
2022/04/02 06:40:22;;;;;;;0.30;0.30;;;4.50;99.90;;;;;;5059915;28;20717;-82
2022/04/02 06:42:48;;;;;;;0.93;0.50;;;4.30;99.90;;;;;;5058815;28;20232;-84
2022/04/02 06:45:15;;;;;;;0.57;0.57;;;4.50;99.90;;;;;;5041843;28;20897;-82
2022/04/02 06:47:40;;;;;;;0.87;0.77;;;4.90;99.90;;;;;;5060359;28;20250;-82
2022/04/02 06:50:11;;;;;;;0.93;0.70;;;5.50;99.90;;;;;;5041363;28;20229;-82
2022/04/02 06:52:38;;;;;;;0.70;0.70;;;6.30;99.90;;;;;;5041884;28;20685;-83
2022/04/02 06:55:04;;;;;;;0.63;0.60;;;6.40;99.90;;;;;;5075371;28;21057;-82
2022/04/02 06:57:30;;;;;;;0.50;0.50;;;7.00;99.90;;;;;;5058747;28;20189;-82
2022/04/02 06:59:57;;;;;;;0.50;0.50;;;7.30;99.90;;;;;;5060619;28;20831;-83
2022/04/02 07:02:23;;;;;;;0.63;0.63;;;7.00;99.90;;;;;;5041178;28;20434;-82
2022/04/02 07:04:49;;;;;;;0.83;0.73;;;6.50;99.90;;;;;;5040565;28;20581;-83
2022/04/02 07:07:14;;;;;;;13.77;1.10;;;6.60;99.90;;;;;;5059723;28;20590;-81
2022/04/02 07:09:40;;;;;;;0.87;0.60;;;7.00;99.90;;;;;;5061177;28;20209;-83
2022/04/02 07:12:07;;;;;;;0.50;0.50;;;8.60;99.90;;;;;;5043856;28;20205;-83
2022/04/02 07:14:33;;;;;;;0.83;0.60;;;9.20;99.90;;;;;;5064116;28;21086;-80
2022/04/02 07:16:59;;;;;;;0.80;0.70;;;9.10;99.90;;;;;;5063703;28;20221;-84
2022/04/02 07:19:27;;;;;;;0.43;0.43;;;9.10;99.90;;;;;;5063538;28;20210;-82
2022/04/02 07:21:54;;;;;;;0.80;0.80;;;9.10;99.90;;;;;;5044875;28;20244;-82
2022/04/02 07:24:21;;;;;;;0.80;0.80;;;9.40;99.90;;;;;;5063639;28;20177;-83
2022/04/02 07:26:48;;;;;;;1.60;0.97;;;9.50;99.90;;;;;;5044079;28;20178;-82
2022/04/02 07:29:15;;;;;;;1.33;1.23;;;9.30;99.90;;;;;;5077974;28;20681;-82
2022/04/02 07:31:44;;;;;;;0.50;0.50;;;9.20;99.90;;;;;;5060531;28;20233;-79
2022/04/02 07:34:11;;;;;;;0.87;0.87;;;10.40;99.90;;;;;;5062584;28;20289;-82
2022/04/02 07:37:07;;;;;;;0.30;0.30;;;10.50;99.90;;;;;;5078304;28;20217;-81
2022/04/02 07:39:49;;;;;;;0.50;0.50;;;10.30;99.90;;;;;;5062225;28;20227;-82
2022/04/02 07:42:32;;;;;;;0.57;0.57;;;9.50;99.90;;;;;;5044106;28;20184;-82
2022/04/02 07:45:08;;;;;;;0.37;0.37;;;10.60;99.90;;;;;;5063252;28;20192;-81
2022/04/02 07:47:37;;;;;;;0.73;0.40;;;10.00;99.90;;;;;;5043469;28;20216;-81
2022/04/02 07:50:07;;;;;;;1.03;0.67;;;10.00;99.90;;;;;;5060465;28;20229;-82
2022/04/02 07:52:36;;;;;;;0.77;0.63;;;10.30;99.90;;;;;;5077913;28;20209;-82
2022/04/02 07:55:05;;;;;;;0.30;0.30;;;11.30;99.90;;;;;;5043558;28;20630;-82
2022/04/02 07:57:40;;;;;;;1.43;0.50;;;12.00;99.90;;;;;;5061718;28;20216;-83
2022/04/02 08:00:09;;;;;;;1.47;0.87;;;11.40;99.90;;;;;;5028039;28;20241;-82
2022/04/02 08:02:37;;;;;;;0.30;0.30;;;12.00;99.90;;;;;;5022490;28;20433;-81
2022/04/02 08:05:10;;;;;;;0.60;0.40;;;11.30;99.90;;;;;;5022413;28;20229;-83
2022/04/02 08:07:43;;;;;;;0.30;0.30;;;11.70;99.90;;;;;;5022691;28;20592;-84
2022/04/02 08:10:13;;;;;;;0.30;0.30;;;11.10;99.90;;;;;;5023458;28;20219;-83
2022/04/02 08:12:40;;;;;;;0.43;0.43;;;10.60;99.90;;;;;;5021969;28;20645;-83
2022/04/02 08:15:09;;;;;;;0.27;0.27;;;9.00;99.90;;;;;;5022885;28;20273;-83
2022/04/02 08:17:41;;;;;;;0.30;0.30;;;8.40;99.90;;;;;;5022729;28;20248;-80
2022/04/02 08:20:08;;;;;;;0.40;0.40;;;8.80;99.90;;;;;;5022433;28;20791;-81
2022/04/02 08:22:34;;;;;;;1.13;1.13;;;7.50;99.90;;;;;;5023127;28;20214;-82
2022/04/02 08:25:00;;;;;;;0.10;0.10;;;7.50;99.90;;;;;;5021369;28;20297;-83
2022/04/02 08:27:33;;;;;;;1.90;0.40;;;7.90;99.90;;;;;;5021149;28;20330;-81
2022/04/02 08:30:08;;;;;;;0.63;0.63;;;7.30;99.90;;;;;;5022356;28;20198;-82
2022/04/02 08:33:31;;;;;;;0.30;0.30;;;7.60;99.90;;;;;;5021019;28;20867;-83
2022/04/02 08:36:23;;;;;;;0.23;0.23;;;7.30;99.90;;;;;;4950806;28;20228;-81
2022/04/02 08:39:23;;;;;;;0.33;0.33;;;7.20;99.90;;;;;;4976134;28;20224;-83
2022/04/02 08:42:08;;;;;;;0.60;0.60;;;7.80;99.90;;;;;;4992970;28;20268;-83
2022/04/02 08:44:52;;;;;;;0.30;0.30;;;8.10;99.90;;;;;;5021614;28;20460;-83
2022/04/02 08:47:38;;;;;;;0.63;0.40;;;8.10;99.90;;;;;;5022015;28;20222;-82
2022/04/02 08:50:10;;;;;;;4.23;0.33;;;8.00;99.90;;;;;;5009209;28;20244;-83
2022/04/02 08:52:51;;;;;;;0.63;0.63;;;6.60;99.90;;;;;;5021867;28;20217;-82
2022/04/02 08:55:21;;;;;;;1.03;0.60;;;6.90;99.90;;;;;;5020193;28;20250;-83
2022/04/02 08:57:53;;;;;;;0.37;0.37;;;8.20;99.90;;;;;;5022542;28;20432;-82
2022/04/02 09:00:27;;;;;;;0.47;0.47;;;7.90;99.90;;;;;;5053510;28;20274;-82
2022/04/02 09:03:14;;;;;;;1.43;1.40;;;6.80;99.90;;;;;;5062531;28;20193;-83
2022/04/02 09:06:18;;;;;;;0.40;0.40;;;7.90;99.90;;;;;;5061422;28;20235;-83
2022/04/02 09:08:55;;;;;;;0.30;0.30;;;9.00;99.90;;;;;;5061149;28;20328;-82
2022/04/02 09:11:53;;;;;;;0.40;0.40;;;9.60;99.90;;;;;;5043018;28;20228;-82
2022/04/02 09:14:48;;;;;;;0.30;0.30;;;8.50;99.90;;;;;;5032202;28;20232;-81
2022/04/02 09:17:54;;;;;;;0.67;0.20;;;7.30;99.90;;;;;;5042904;28;20221;-84
2022/04/02 09:20:44;;;;;;;0.47;0.47;;;7.50;99.90;;;;;;5060041;28;20263;-83
2022/04/02 09:23:21;;;;;;;0.60;0.37;;;7.40;99.90;;;;;;5043375;28;20225;-84
2022/04/02 09:26:11;;;;;;;0.40;0.40;;;8.00;99.90;;;;;;5076108;28;20251;-84
2022/04/02 09:28:56;;;;;;;2.23;0.50;;;7.70;99.90;;;;;;5043168;28;20320;-83
2022/04/02 09:31:43;;;;;;;0.20;0.20;;;8.50;99.90;;;;;;5060109;28;20225;-84
2022/04/02 09:34:24;;;;;;;0.30;0.30;;;9.30;99.90;;;;;;5060872;28;20226;-82
2022/04/02 09:37:22;;;;;;;0.20;0.20;;;9.20;99.90;;;;;;5042588;28;20677;-82
2022/04/02 09:39:59;;;;;;;0.30;0.30;;;9.10;99.90;;;;;;5060743;28;20251;-83
2022/04/02 09:42:43;;;;;;;0.30;0.30;;;7.80;99.90;;;;;;5042408;28;20980;-82
2022/04/02 09:45:18;;;;;;;2.07;0.83;;;8.70;99.90;;;;;;5061387;28;20189;-83
2022/04/02 09:48:22;;;;;;;0.30;0.30;;;9.20;99.90;;;;;;5061464;28;20289;-82
2022/04/02 09:50:54;;;;;;;0.67;0.50;;;9.00;99.90;;;;;;5038433;28;20224;-83
2022/04/02 09:53:32;;;;;;;0.60;0.43;;;8.80;99.90;;;;;;5038875;28;20225;-82
2022/04/02 09:56:34;;;;;;;0.30;0.30;;;8.30;99.90;;;;;;5056298;28;20316;-84
2022/04/02 09:59:04;;;;;;;0.80;0.40;;;8.40;99.90;;;;;;5073460;28;20263;-82
2022/04/02 10:02:01;;;;;;;0.53;0.53;;;9.10;99.90;;;;;;5039535;28;20606;-82
2022/04/02 10:04:27;;;;;;;0.30;0.30;;;9.10;99.90;;;;;;5073461;28;20220;-83
2022/04/02 10:06:57;;;;;;;1.23;0.80;;;9.30;99.90;;;;;;5058056;28;20531;-82
2022/04/02 10:09:27;;;;;;;1.13;0.40;;;9.60;99.90;;;;;;5058362;28;20712;-83
2022/04/02 10:11:58;;;;;;;0.67;0.67;;;10.50;99.90;;;;;;5056274;28;20193;-82
2022/04/02 10:14:26;;;;;;;0.40;0.40;;;10.40;99.90;;;;;;5058266;28;20240;-83
2022/04/02 10:16:56;;;;;;;10.83;0.70;;;10.80;99.90;;;;;;5073377;28;20217;-82
2022/04/02 10:19:31;;;;;;;0.87;0.87;;;9.50;99.90;;;;;;5040258;28;20742;-82
2022/04/02 10:22:05;;;;;;;0.50;0.50;;;8.70;99.90;;;;;;5040245;28;20236;-83
2022/04/02 10:24:47;;;;;;;1.27;0.40;;;8.90;99.90;;;;;;5073794;28;20189;-82
2022/04/02 10:27:30;;;;;;;0.30;0.30;;;8.30;99.90;;;;;;5040384;28;20201;-82
2022/04/02 10:30:01;;;;;;;0.20;0.20;;;8.80;99.90;;;;;;5059395;28;20432;-82
2022/04/02 10:33:26;;;;;;;0.40;0.40;;;8.50;99.90;;;;;;5058329;28;20269;-82
2022/04/02 10:35:46;;;;;;;0.20;0.20;;;9.00;99.90;;;;;;5058795;28;20307;-82
2022/04/02 10:38:39;;;;;;;0.37;0.37;;;9.40;99.90;;;;;;5040634;28;20227;-84
2022/04/02 10:41:14;;;;;;;0.63;0.63;;;8.80;99.90;;;;;;5040038;28;20233;-82
2022/04/02 10:43:52;;;;;;;0.53;0.53;;;9.40;99.90;;;;;;5072992;28;20224;-82
2022/04/02 10:46:20;;;;;;;0.70;0.67;;;9.20;99.90;;;;;;5058574;28;20893;-81
2022/04/02 10:49:00;;;;;;;2.27;0.80;;;9.40;99.90;;;;;;5062137;28;20303;-82
2022/04/02 10:51:28;;;;;;;0.30;0.30;;;10.20;99.90;;;;;;5061750;28;20714;-82
2022/04/02 10:54:02;;;;;;;0.30;0.30;;;10.30;99.90;;;;;;5063061;28;20802;-83
2022/04/02 10:56:34;;;;;;;0.83;0.57;;;9.40;99.90;;;;;;5043196;28;20691;-84
2022/04/02 10:59:00;;;;;;;5.63;0.60;;;8.80;99.90;;;;;;5053397;28;20237;-81
2022/04/02 11:01:27;;;;;;;0.60;0.50;;;9.20;99.90;;;;;;5059416;28;20205;-83
2022/04/02 11:03:58;;;;;;;0.53;0.43;;;8.30;99.90;;;;;;5077121;28;20309;-82
2022/04/02 11:06:47;;;;;;;0.30;0.30;;;8.80;99.90;;;;;;5045593;28;20223;-83
2022/04/02 11:09:29;;;;;;;0.50;0.30;;;8.80;99.90;;;;;;5060510;28;20232;-84
2022/04/02 11:12:03;;;;;;;1.33;0.50;;;8.30;99.90;;;;;;5062685;28;20244;-81
2022/04/02 11:14:43;;;;;;;0.43;0.43;;;8.70;99.90;;;;;;5043102;28;20217;-82
2022/04/02 11:17:32;;;;;;;0.40;0.40;;;8.90;99.90;;;;;;5043883;28;20213;-85
2022/04/02 11:20:06;;;;;;;0.40;0.40;;;9.50;99.90;;;;;;5043461;28;20689;-83
2022/04/02 11:22:46;;;;;;;0.70;0.53;;;9.20;99.90;;;;;;5062414;28;21028;-82
2022/04/02 11:25:19;;;;;;;6.43;0.40;;;8.60;99.90;;;;;;5076323;28;20189;-82
2022/04/02 11:27:49;;;;;;;0.47;0.47;;;8.80;99.90;;;;;;5062280;28;20221;-83
2022/04/02 11:30:16;;;;;;;0.30;0.30;;;9.30;99.90;;;;;;5045169;28;20217;-83
2022/04/02 11:32:45;;;;;;;0.77;0.77;;;8.10;99.90;;;;;;5062763;28;20216;-82
2022/04/02 11:35:23;;;;;;;0.40;0.40;;;7.90;99.90;;;;;;5045497;28;20220;-82
2022/04/02 11:37:54;;;;;;;0.50;0.40;;;7.90;99.90;;;;;;5045704;28;20266;-83
2022/04/02 11:40:23;;;;;;;0.63;0.57;;;7.70;99.90;;;;;;5044824;28;20217;-82
2022/04/02 11:42:50;;;;;;;0.60;0.60;;;7.80;99.90;;;;;;5062370;28;20250;-81
2022/04/02 11:45:19;;;;;;;0.40;0.40;;;7.70;99.90;;;;;;5045156;28;20299;-83
2022/04/02 11:47:48;;;;;;;0.20;0.20;;;7.20;99.90;;;;;;5044953;28;20217;-83
2022/04/02 11:50:26;;;;;;;0.70;0.70;;;7.20;99.90;;;;;;5057267;28;20225;-82
2022/04/02 11:52:55;;;;;;;0.43;0.43;;;7.70;99.90;;;;;;5045034;28;20323;-82
2022/04/02 11:55:22;;;;;;;0.67;0.63;;;8.30;99.90;;;;;;5045089;28;20703;-82
2022/04/02 11:58:12;;;;;;;0.27;0.20;;;7.70;99.90;;;;;;5062478;28;20189;-82
2022/04/02 12:00:43;;;;;;;0.40;0.40;;;8.00;99.90;;;;;;5076810;28;20688;-82
2022/04/02 12:03:29;;;;;;;0.40;0.40;;;8.00;99.90;;;;;;5076546;28;20217;-82
2022/04/02 12:05:54;;;;;;;0.30;0.30;;;8.30;99.90;;;;;;5043747;28;20241;-82
2022/04/02 12:08:26;;;;;;;0.63;0.63;;;7.90;99.90;;;;;;5043608;28;20754;-83
2022/04/02 12:10:52;;;;;;;2.77;0.50;;;7.40;99.90;;;;;;5061803;28;20216;-82
2022/04/02 12:13:19;;;;;;;0.40;0.40;;;7.70;99.90;;;;;;5028056;28;20231;-83
2022/04/02 12:16:14;;;;;;;0.47;0.47;;;7.60;99.90;;;;;;5077247;28;20188;-82
2022/04/02 12:18:59;;;;;;;0.30;0.30;;;7.60;99.90;;;;;;5034517;28;20278;-83
2022/04/02 12:21:43;;;;;;;0.20;0.20;;;7.70;99.90;;;;;;5061024;28;20275;-82
2022/04/02 12:24:11;;;;;;;0.30;0.30;;;7.70;99.90;;;;;;5077158;28;20221;-83
2022/04/02 12:26:37;;;;;;;0.37;0.30;;;8.00;99.90;;;;;;5076047;28;20312;-82
2022/04/02 12:29:03;;;;;;;1.23;0.90;;;7.90;99.90;;;;;;5059936;28;20221;-81
2022/04/02 12:31:31;;;;;;;1.13;0.90;;;7.90;99.90;;;;;;5076229;28;21142;-82
2022/04/02 12:34:00;;;;;;;0.20;0.20;;;7.60;99.90;;;;;;5061783;28;20211;-83
2022/04/02 12:36:31;;;;;;;0.37;0.37;;;7.50;99.90;;;;;;5076720;28;20221;-83
2022/04/02 12:39:04;;;;;;;1.23;0.40;;;7.60;99.90;;;;;;5043522;28;20224;-81
2022/04/02 12:41:30;;;;;;;0.53;0.53;;;7.70;99.90;;;;;;5060317;28;20284;-82
2022/04/02 12:44:06;;;;;;;0.40;0.40;;;7.60;99.90;;;;;;5060125;28;20209;-84
2022/04/02 12:46:32;;;;;;;0.60;0.60;;;7.70;99.90;;;;;;5042779;28;20299;-82
2022/04/02 12:48:59;;;;;;;0.93;0.93;;;7.70;99.90;;;;;;5060431;28;20638;-82
2022/04/02 12:51:25;;;;;;;0.30;0.30;;;7.60;99.90;;;;;;5042778;28;20228;-82
2022/04/02 12:54:01;;;;;;;0.37;0.37;;;7.70;99.90;;;;;;5060530;28;20294;-82
2022/04/02 12:56:32;;;;;;;0.30;0.30;;;7.50;99.90;;;;;;5042804;28;20224;-81
2022/04/02 12:58:59;;;;;;;0.30;0.30;;;7.70;99.90;;;;;;5003521;28;1123742;-82
2022/04/02 13:01:33;;;;;;;0.23;0.23;;;7.70;99.90;;;;;;5077469;28;20197;-84
2022/04/02 13:03:59;;;;;;;0.30;0.30;;;7.60;99.90;;;;;;5062369;28;20540;-81
2022/04/02 13:06:29;;;;;;;11.97;0.60;;;7.60;99.90;;;;;;5061109;28;20250;-83
2022/04/02 13:09:14;;;;;;;0.27;0.27;;;7.50;99.90;;;;;;5061179;28;20222;-82
2022/04/02 13:11:44;;;;;;;0.70;0.70;;;7.50;99.90;;;;;;5042757;28;20224;-82
2022/04/02 13:14:14;;;;;;;1.70;0.40;;;7.60;99.90;;;;;;5043585;28;20757;-83
2022/04/02 13:16:40;;;;;;;1.03;0.83;;;7.60;99.90;;;;;;5043128;28;20668;-83
2022/04/02 13:22:08;;;;;;;1.07;0.40;;;7.70;99.90;;;;;;5061257;28;20240;-83